createdAt,value
2018-09-19T00:00:40.130Z,19.49
2018-09-19T00:03:08.475Z,19.55
2018-09-19T00:05:36.800Z,19.60
2018-09-19T00:08:05.134Z,19.65
2018-09-19T00:10:32.897Z,19.86
2018-09-19T00:13:02.029Z,20.03
2018-09-19T00:15:29.547Z,20.24
2018-09-19T00:17:58.578Z,20.36
2018-09-19T00:20:26.304Z,20.40
2018-09-19T00:22:55.219Z,20.43
2018-09-19T00:25:23.551Z,20.50
2018-09-19T00:27:51.295Z,20.62
2018-09-19T00:30:20.234Z,20.72
2018-09-19T00:32:48.562Z,20.83
2018-09-19T00:35:16.892Z,20.97
2018-09-19T00:37:45.263Z,21.04
2018-09-19T00:40:13.593Z,21.08
2018-09-19T00:42:41.910Z,21.12
2018-09-19T00:45:09.643Z,21.15
2018-09-19T00:47:37.979Z,21.16
2018-09-19T00:50:06.308Z,21.19
2018-09-19T00:52:35.205Z,21.22
2018-09-19T00:55:02.961Z,21.23
2018-09-19T00:57:31.313Z,21.25
2018-09-19T01:00:00.222Z,21.27
2018-09-19T01:02:28.588Z,21.27
2018-09-19T01:04:56.322Z,21.29
2018-09-19T01:07:25.223Z,21.30
2018-09-19T01:09:53.600Z,21.32
2018-09-19T01:12:21.293Z,21.33
2018-09-19T01:14:50.197Z,21.39
2018-09-19T01:17:18.563Z,21.42
2018-09-19T01:19:46.889Z,21.42
2018-09-19T01:22:15.238Z,21.41
2018-09-19T01:24:42.985Z,21.41
2018-09-19T01:27:11.323Z,21.39
2018-09-19T01:29:39.642Z,21.40
2018-09-19T01:32:08.557Z,21.41
2018-09-19T01:34:36.889Z,21.41
2018-09-19T01:37:05.207Z,21.43
2018-09-19T01:39:33.533Z,21.44
2018-09-19T01:42:01.270Z,21.45
2018-09-19T01:44:29.592Z,21.44
2018-09-19T01:46:57.916Z,21.45
2018-09-19T01:49:26.816Z,21.47
2018-09-19T01:51:55.133Z,21.49
2018-09-19T01:54:23.462Z,21.48
2018-09-19T01:56:51.791Z,21.49
2018-09-19T01:59:20.132Z,21.47
2018-09-19T02:01:47.877Z,21.44
2018-09-19T02:04:16.776Z,21.44
2018-09-19T02:06:45.342Z,21.42
2018-09-19T02:09:12.864Z,21.38
2018-09-19T02:11:41.767Z,21.36
2018-09-19T02:14:10.097Z,21.37
2018-09-19T02:16:37.843Z,21.32
2018-09-19T02:19:06.754Z,21.31
2018-09-19T02:21:35.072Z,21.29
2018-09-19T02:24:03.433Z,21.27
2018-09-19T02:26:31.747Z,21.24
2018-09-19T02:29:00.077Z,21.20
2018-09-19T02:31:27.815Z,21.18
2018-09-19T02:33:56.732Z,21.16
2018-09-19T02:36:24.473Z,21.14
2018-09-19T02:38:53.386Z,21.09
2018-09-19T02:41:21.708Z,21.07
2018-09-19T02:43:49.452Z,21.06
2018-09-19T02:46:18.372Z,21.03
2018-09-19T02:48:47.273Z,20.96
2018-09-19T02:51:15.018Z,20.92
2018-09-19T02:53:42.769Z,20.90
2018-09-19T02:56:11.690Z,20.88
2018-09-19T02:58:40.015Z,20.88
2018-09-19T03:01:08.348Z,20.88
2018-09-19T03:03:36.688Z,20.89
2018-09-19T03:06:04.999Z,20.88
2018-09-19T03:08:32.756Z,20.87
2018-09-19T03:11:01.673Z,20.82
2018-09-19T03:13:29.993Z,20.78
2018-09-19T03:15:58.311Z,20.74
2018-09-19T03:18:26.052Z,20.70
2018-09-19T03:20:54.369Z,20.71
2018-09-19T03:23:23.284Z,20.68
2018-09-19T03:25:51.610Z,20.66
2018-09-19T03:28:19.933Z,20.68
2018-09-19T03:30:48.238Z,20.68
2018-09-19T03:33:16.583Z,20.62
2018-09-19T03:35:44.913Z,20.54
2018-09-19T03:38:13.236Z,20.47
2018-09-19T03:40:41.564Z,20.50
2018-09-19T03:43:09.312Z,20.50
2018-09-19T03:45:37.636Z,20.51
2018-09-19T03:48:05.956Z,20.52
2018-09-19T03:50:34.871Z,20.44
2018-09-19T03:53:03.200Z,20.21
2018-09-19T03:55:31.731Z,20.01
2018-09-19T03:58:00.057Z,19.94
2018-09-19T04:00:27.785Z,19.98
2018-09-19T04:02:56.113Z,20.12
2018-09-19T04:05:24.446Z,20.29
2018-09-19T04:07:52.764Z,20.47
2018-09-19T04:10:21.661Z,20.62
2018-09-19T04:12:49.422Z,20.71
2018-09-19T04:15:18.355Z,20.74
2018-09-19T04:17:46.690Z,20.79
2018-09-19T04:20:14.413Z,20.82
2018-09-19T04:22:43.334Z,20.86
2018-09-19T04:25:11.070Z,20.87
2018-09-19T04:27:40.337Z,20.83
2018-09-19T04:30:08.647Z,20.81
2018-09-19T04:32:37.666Z,20.82
2018-09-19T04:35:05.418Z,20.84
2018-09-19T04:37:34.427Z,20.88
2018-09-19T04:40:02.755Z,20.90
2018-09-19T04:42:30.534Z,20.89
2018-09-19T04:44:59.338Z,20.92
2018-09-19T04:47:27.655Z,20.96
2018-09-19T04:49:56.570Z,21.02
2018-09-19T04:52:24.897Z,21.02
2018-09-19T04:54:53.229Z,21.03
2018-09-19T04:57:21.056Z,21.07
2018-09-19T04:59:49.315Z,21.00
2018-09-19T05:02:17.637Z,21.00
2018-09-19T05:04:46.246Z,21.02
2018-09-19T05:07:14.948Z,21.00
2018-09-19T05:09:43.218Z,21.02
2018-09-19T05:12:11.583Z,20.93
2018-09-19T05:14:39.943Z,20.95
2018-09-19T05:17:08.280Z,20.90
2018-09-19T05:19:36.622Z,20.86
2018-09-19T05:22:04.368Z,20.82
2018-09-19T05:24:32.700Z,20.79
2018-09-19T05:27:01.091Z,20.74
2018-09-19T05:29:29.987Z,20.71
2018-09-19T05:31:58.283Z,20.74
2018-09-19T05:34:26.633Z,20.66
2018-09-19T05:36:54.383Z,20.66
2018-09-19T05:39:23.307Z,20.86
2018-09-19T05:41:51.658Z,21.30
2018-09-19T05:44:19.993Z,21.23
2018-09-19T05:46:48.316Z,20.80
2018-09-19T05:49:16.075Z,20.69
2018-09-19T05:51:45.710Z,20.66
2018-09-19T05:54:13.310Z,20.62
2018-09-19T05:56:41.646Z,20.61
2018-09-19T05:59:09.392Z,20.60
2018-09-19T06:01:37.729Z,20.59
2018-09-19T06:04:06.646Z,20.60
2018-09-19T06:06:34.965Z,20.68
2018-09-19T06:09:03.312Z,20.75
2018-09-19T06:11:31.674Z,20.78
2018-09-19T06:14:00.003Z,20.86
2018-09-19T06:16:27.750Z,20.96
2018-09-19T06:18:56.083Z,21.18
2018-09-19T06:21:25.024Z,22.12
2018-09-19T06:23:52.761Z,21.87
2018-09-19T06:26:21.659Z,21.67
2018-09-19T06:28:49.397Z,21.64
2018-09-19T06:31:18.345Z,21.61
2018-09-19T06:33:46.664Z,21.63
2018-09-19T06:36:14.976Z,21.65
2018-09-19T06:38:43.311Z,21.66
2018-09-19T06:41:12.077Z,21.75
2018-09-19T06:43:39.797Z,21.87
2018-09-19T06:46:08.720Z,21.93
2018-09-19T06:48:36.468Z,22.00
2018-09-19T06:51:05.384Z,22.11
2018-09-19T06:53:33.113Z,22.23
2018-09-19T06:56:02.027Z,22.28
2018-09-19T06:58:30.348Z,22.31
2018-09-19T07:00:59.281Z,22.31
2018-09-19T07:03:26.505Z,22.35
2018-09-19T07:05:55.504Z,22.32
2018-09-19T07:08:23.849Z,22.23
2018-09-19T07:10:51.568Z,22.27
2018-09-19T07:13:20.535Z,22.58
2018-09-19T07:15:48.878Z,22.28
2018-09-19T07:18:17.238Z,22.11
2018-09-19T07:20:45.568Z,22.04
2018-09-19T07:23:13.902Z,22.07
2018-09-19T07:25:41.648Z,22.11
2018-09-19T07:28:10.569Z,22.20
2018-09-19T07:30:38.896Z,22.21
2018-09-19T07:33:07.253Z,22.23
2018-09-19T07:35:35.583Z,22.31
2018-09-19T07:38:03.922Z,22.28
2018-09-19T07:40:32.257Z,22.33
2018-09-19T07:43:00.611Z,22.40
2018-09-19T07:45:28.348Z,22.38
2018-09-19T07:47:57.268Z,22.41
2018-09-19T07:50:25.845Z,22.38
2018-09-19T07:52:53.612Z,22.32
2018-09-19T07:55:22.768Z,22.33
2018-09-19T07:57:50.878Z,22.41
2018-09-19T08:00:18.612Z,22.43
2018-09-19T08:02:47.530Z,22.50
2018-09-19T08:05:15.266Z,22.59
2018-09-19T08:07:44.185Z,22.62
2018-09-19T08:10:12.525Z,22.70
2018-09-19T08:12:41.083Z,22.78
2018-09-19T08:15:08.605Z,22.87
2018-09-19T08:17:37.505Z,22.97
2018-09-19T08:20:06.085Z,23.04
2018-09-19T08:22:34.466Z,23.09
2018-09-19T08:25:02.163Z,23.14
2018-09-19T08:27:31.102Z,23.16
2018-09-19T08:29:59.418Z,23.19
2018-09-19T08:32:27.753Z,23.19
2018-09-19T08:34:55.526Z,23.20
2018-09-19T08:37:24.440Z,23.23
2018-09-19T08:39:52.784Z,23.24
2018-09-19T08:42:20.601Z,23.21
2018-09-19T08:44:49.513Z,23.23
2018-09-19T08:47:17.842Z,23.22
2018-09-19T08:49:46.161Z,23.16
2018-09-19T08:52:14.507Z,23.20
2018-09-19T08:54:42.858Z,23.26
2018-09-19T08:57:11.220Z,23.29
2018-09-19T08:59:39.498Z,23.32
2018-09-19T09:02:07.830Z,23.27
2018-09-19T09:04:36.168Z,23.22
2018-09-19T09:07:03.920Z,23.27
2018-09-19T09:09:32.247Z,23.21
2018-09-19T09:12:01.205Z,23.27
2018-09-19T09:14:29.487Z,23.39
2018-09-19T09:16:57.817Z,23.49
2018-09-19T09:19:26.141Z,23.58
2018-09-19T09:21:54.506Z,23.59
2018-09-19T09:24:22.831Z,23.58
2018-09-19T09:26:50.615Z,23.67
2018-09-19T09:29:19.490Z,23.73
2018-09-19T09:31:47.229Z,23.76
2018-09-19T09:34:16.233Z,23.82
2018-09-19T09:36:43.995Z,23.84
2018-09-19T09:39:12.869Z,23.90
2018-09-19T09:41:41.175Z,23.85
2018-09-19T09:44:09.509Z,23.92
2018-09-19T09:46:37.846Z,23.97
2018-09-19T09:49:05.602Z,24.04
2018-09-19T09:51:34.499Z,24.04
2018-09-19T09:54:02.829Z,24.02
2018-09-19T09:56:31.165Z,24.02
2018-09-19T09:58:59.485Z,23.98
2018-09-19T10:01:27.838Z,24.04
2018-09-19T10:03:56.168Z,24.12
2018-09-19T10:06:23.945Z,24.20
2018-09-19T10:08:52.249Z,24.22
2018-09-19T10:11:21.148Z,24.29
2018-09-19T10:13:49.489Z,24.36
2018-09-19T10:16:17.791Z,24.32
2018-09-19T10:18:46.112Z,24.36
2018-09-19T10:21:13.853Z,24.37
2018-09-19T10:23:42.189Z,24.41
2018-09-19T10:26:10.506Z,24.44
2018-09-19T10:28:38.844Z,24.46
2018-09-19T10:31:07.760Z,24.33
2018-09-19T10:33:35.506Z,24.43
2018-09-19T10:36:03.829Z,24.54
2018-09-19T10:38:32.773Z,24.62
2018-09-19T10:41:00.526Z,24.64
2018-09-19T10:43:29.431Z,24.67
2018-09-19T10:45:57.187Z,24.69
2018-09-19T10:48:26.076Z,24.69
2018-09-19T10:50:54.402Z,24.71
2018-09-19T10:53:22.157Z,24.77
2018-09-19T10:55:51.060Z,24.80
2018-09-19T10:58:19.383Z,24.85
2018-09-19T11:00:47.699Z,24.93
2018-09-19T11:03:15.440Z,25.01
2018-09-19T11:05:43.782Z,25.04
2018-09-19T11:08:12.748Z,25.08
2018-09-19T11:10:41.046Z,25.14
2018-09-19T11:13:09.364Z,25.22
2018-09-19T11:15:37.112Z,25.35
2018-09-19T11:18:06.013Z,25.49
2018-09-19T11:20:34.341Z,25.65
2018-09-19T11:23:02.647Z,25.72
2018-09-19T11:25:31.000Z,25.79
2018-09-19T11:27:58.752Z,25.76
2018-09-19T11:30:27.669Z,25.81
2018-09-19T11:32:56.010Z,26.00
2018-09-19T11:35:24.362Z,26.10
2018-09-19T11:37:52.686Z,26.18
2018-09-19T11:40:21.055Z,26.29
2018-09-19T11:42:49.380Z,26.41
2018-09-19T11:45:17.118Z,26.53
2018-09-19T11:47:45.434Z,26.63
2018-09-19T11:50:14.416Z,26.68
2018-09-19T11:52:42.735Z,26.76
2018-09-19T11:55:11.066Z,26.91
2018-09-19T11:57:39.396Z,27.04
2018-09-19T12:00:07.771Z,27.11
2018-09-19T12:02:35.516Z,27.15
2018-09-19T12:05:04.412Z,27.33
2018-09-19T12:07:32.748Z,27.38
2018-09-19T12:10:01.095Z,27.50
2018-09-19T12:12:29.429Z,27.46
2018-09-19T12:14:57.751Z,27.70
2018-09-19T12:17:25.495Z,27.96
2018-09-19T12:19:53.816Z,28.17
2018-09-19T12:22:22.717Z,28.36
2018-09-19T12:24:51.045Z,28.25
2018-09-19T12:27:19.366Z,28.40
2018-09-19T12:29:47.701Z,28.77
2018-09-19T12:32:16.037Z,28.94
2018-09-19T12:34:44.371Z,28.98
2018-09-19T12:37:12.687Z,28.84
2018-09-19T12:39:40.465Z,28.96
2018-09-19T12:42:08.777Z,29.08
2018-09-19T12:44:37.675Z,29.28
2018-09-19T12:47:06.069Z,29.60
2018-09-19T12:49:34.401Z,29.80
2018-09-19T12:52:02.150Z,30.01
2018-09-19T12:54:31.057Z,30.15
2018-09-19T12:56:58.807Z,30.44
2018-09-19T12:59:27.724Z,30.47
2018-09-19T13:01:55.477Z,30.28
2018-09-19T13:04:24.374Z,30.03
2018-09-19T13:06:52.691Z,30.04
2018-09-19T13:09:21.023Z,30.29
2018-09-19T13:11:49.051Z,30.72
2018-09-19T13:14:17.072Z,30.98
2018-09-19T13:16:45.987Z,31.00
2018-09-19T13:19:14.318Z,31.40
2018-09-19T13:21:42.647Z,31.63
2018-09-19T13:24:10.955Z,31.53
2018-09-19T13:26:38.706Z,31.73
2018-09-19T13:29:07.029Z,32.01
2018-09-19T13:31:35.354Z,32.54
2018-09-19T13:34:03.698Z,32.72
2018-09-19T13:36:31.996Z,32.43
2018-09-19T13:39:00.907Z,32.11
2018-09-19T13:41:29.227Z,32.07
2018-09-19T13:43:57.573Z,31.64
2018-09-19T13:46:25.911Z,31.37
2018-09-19T13:48:54.234Z,31.29
2018-09-19T13:51:22.543Z,31.60
2018-09-19T13:53:50.910Z,32.07
2018-09-19T13:56:19.230Z,32.24
2018-09-19T13:58:47.587Z,32.42
2018-09-19T14:01:15.883Z,32.64
2018-09-19T14:03:44.199Z,32.39
2018-09-19T14:06:12.521Z,32.08
2018-09-19T14:08:40.852Z,31.72
2018-09-19T14:11:09.192Z,31.53
2018-09-19T14:13:37.523Z,31.61
2018-09-19T14:16:05.868Z,32.00
2018-09-19T14:18:34.185Z,32.42
2018-09-19T14:21:01.990Z,32.81
2018-09-19T14:23:30.912Z,32.90
2018-09-19T14:25:58.675Z,33.16
2018-09-19T14:28:27.621Z,33.69
2018-09-19T14:30:55.908Z,33.90
2018-09-19T14:33:24.236Z,34.10
2018-09-19T14:35:52.167Z,34.27
2018-09-19T14:38:20.946Z,34.41
2018-09-19T14:40:49.124Z,34.41
2018-09-19T14:43:17.033Z,34.77
2018-09-19T14:45:45.993Z,35.08
2018-09-19T14:48:14.358Z,35.03
2018-09-19T14:50:42.149Z,35.28
2018-09-19T14:53:11.064Z,35.51
2018-09-19T14:55:38.801Z,35.91
2018-09-19T14:58:07.723Z,36.02
2018-09-19T15:00:36.038Z,35.86
2018-09-19T15:03:04.360Z,35.88
2018-09-19T15:05:32.118Z,35.98
2018-09-19T15:08:01.034Z,35.98
2018-09-19T15:10:28.774Z,36.05
2018-09-19T15:12:57.671Z,35.56
2018-09-19T15:15:26.001Z,33.93
2018-09-19T15:17:54.328Z,32.22
2018-09-19T15:20:22.681Z,31.01
2018-09-19T15:22:51.619Z,30.17
2018-09-19T15:25:19.339Z,29.60
2018-09-19T15:27:47.078Z,29.31
2018-09-19T15:30:15.978Z,29.00
2018-09-19T15:32:44.383Z,28.42
2018-09-19T15:35:12.686Z,27.87
2018-09-19T15:37:41.015Z,27.68
2018-09-19T15:40:09.329Z,27.67
2018-09-19T15:42:37.712Z,27.70
2018-09-19T15:45:08.507Z,27.68
2018-09-19T15:47:36.890Z,27.63
2018-09-19T15:50:05.237Z,27.51
2018-09-19T15:52:33.570Z,27.45
2018-09-19T15:55:01.900Z,27.28
2018-09-19T15:57:29.814Z,27.09
2018-09-19T15:59:58.604Z,26.79
2018-09-19T16:02:26.943Z,26.68
2018-09-19T16:04:54.721Z,26.72
2018-09-19T16:07:23.626Z,26.76
2018-09-19T16:09:51.950Z,26.73
2018-09-19T16:12:20.269Z,26.67
2018-09-19T16:14:48.638Z,26.65
2018-09-19T16:17:16.410Z,26.63
2018-09-19T16:19:45.881Z,26.52
2018-09-19T16:22:14.466Z,26.41
2018-09-19T16:27:12.200Z,26.20
2018-09-19T16:29:40.999Z,26.03
2018-09-19T16:32:08.511Z,25.83
2018-09-19T16:34:36.855Z,25.71
2018-09-19T16:37:05.359Z,25.52
2018-09-19T16:42:32.246Z,25.39
2018-09-19T16:45:00.834Z,25.31
2018-09-19T16:47:30.275Z,25.30
2018-09-19T16:49:59.809Z,25.26
2018-09-19T16:52:28.154Z,25.16
2018-09-19T16:54:56.717Z,25.00
2018-09-19T16:57:25.106Z,24.88
2018-09-19T16:59:55.969Z,24.72
2018-09-19T17:02:24.293Z,24.62
2018-09-19T17:04:52.903Z,24.58
2018-09-19T17:07:23.483Z,24.53
2018-09-19T17:09:51.901Z,24.46
2018-09-19T17:12:20.414Z,24.45
2018-09-19T17:14:49.184Z,24.39
2018-09-19T17:17:17.546Z,24.33
2018-09-19T17:19:46.522Z,24.25
2018-09-19T17:22:15.748Z,24.18
2018-09-19T17:24:44.911Z,24.11
2018-09-19T17:27:16.878Z,24.04
2018-09-19T17:29:45.705Z,24.00
2018-09-19T17:32:14.848Z,23.99
2018-09-19T17:34:43.288Z,23.94
2018-09-19T17:37:11.772Z,23.90
2018-09-19T17:39:40.263Z,23.85
2018-09-19T17:42:10.485Z,23.76
2018-09-19T17:44:40.298Z,23.55
2018-09-19T17:47:08.874Z,23.44
2018-09-19T17:49:37.309Z,23.35
2018-09-19T17:52:05.708Z,23.15
2018-09-19T17:54:38.248Z,23.05
2018-09-19T17:57:06.659Z,23.03
2018-09-19T17:59:36.929Z,23.02
2018-09-19T18:02:05.307Z,23.00
2018-09-19T18:04:34.083Z,22.77
2018-09-19T18:07:02.742Z,22.64
2018-09-19T18:09:31.209Z,22.52
2018-09-19T18:11:59.557Z,22.25
2018-09-19T18:14:28.193Z,21.96
2018-09-19T18:16:55.920Z,21.72
2018-09-19T18:19:24.267Z,21.57
2018-09-19T18:21:52.661Z,21.64
2018-09-19T18:24:21.592Z,21.81
2018-09-19T18:26:50.009Z,21.91
2018-09-19T18:29:17.758Z,22.02
2018-09-19T18:31:46.154Z,22.11
2018-09-19T18:34:15.069Z,22.21
2018-09-19T18:36:43.436Z,22.28
2018-09-19T18:39:11.187Z,22.33
2018-09-19T18:41:40.205Z,22.38
2018-09-19T18:44:08.529Z,22.41
2018-09-19T18:46:36.874Z,22.34
2018-09-19T18:49:05.248Z,22.31
2018-09-19T18:51:33.709Z,22.34
2018-09-19T18:54:02.758Z,22.30
2018-09-19T18:56:31.127Z,22.25
2018-09-19T18:58:59.737Z,22.18
2018-09-19T19:01:28.159Z,22.13
2018-09-19T19:03:56.561Z,22.06
2018-09-19T19:06:25.017Z,22.02
2018-09-19T19:08:54.715Z,21.96
2018-09-19T19:11:23.020Z,21.96
2018-09-19T19:13:51.382Z,21.92
2018-09-19T19:16:24.768Z,21.83
2018-09-19T19:18:52.671Z,21.77
2018-09-19T19:21:20.943Z,21.68
2018-09-19T19:23:50.117Z,21.59
2018-09-19T19:26:18.763Z,21.49
2018-09-19T19:28:47.206Z,21.29
2018-09-19T19:31:15.561Z,21.26
2018-09-19T19:33:44.061Z,21.25
2018-09-19T19:36:11.824Z,21.29
2018-09-19T19:38:41.721Z,21.32
2018-09-19T19:41:10.149Z,21.16
2018-09-19T19:43:38.925Z,20.97
2018-09-19T19:46:07.302Z,20.92
2018-09-19T19:48:37.999Z,20.95
2018-09-19T19:51:06.105Z,21.00
2018-09-19T19:53:35.737Z,21.05
2018-09-19T19:56:04.483Z,21.06
2018-09-19T19:58:32.871Z,21.09
2018-09-19T20:01:01.297Z,20.96
2018-09-19T20:03:29.262Z,20.88
2018-09-19T20:05:57.825Z,20.92
2018-09-19T20:08:26.572Z,20.91
2018-09-19T20:10:54.935Z,20.90
2018-09-19T20:13:23.281Z,20.90
2018-09-19T20:15:51.639Z,20.89
2018-09-19T20:18:19.466Z,20.89
2018-09-19T20:20:48.554Z,20.86
2018-09-19T20:23:16.170Z,20.83
2018-09-19T20:25:45.052Z,20.80
2018-09-19T20:28:13.572Z,20.59
2018-09-19T20:30:42.018Z,20.21
2018-09-19T20:33:11.463Z,19.93
2018-09-19T20:35:38.752Z,19.77
2018-09-19T20:38:07.172Z,19.71
2018-09-19T20:40:35.542Z,19.68
2018-09-19T20:43:03.907Z,19.68
2018-09-19T20:45:32.248Z,19.57
2018-09-19T20:48:00.699Z,19.53
2018-09-19T20:50:29.793Z,19.61
2018-09-19T20:52:58.128Z,19.72
2018-09-19T20:55:26.512Z,19.80
2018-09-19T20:57:54.259Z,19.87
2018-09-19T21:00:23.185Z,19.95
2018-09-19T21:02:52.204Z,20.01
2018-09-19T21:05:19.747Z,19.98
2018-09-19T21:07:48.655Z,19.95
2018-09-19T21:10:17.023Z,19.94
2018-09-19T21:12:45.360Z,19.95
2018-09-19T21:15:13.695Z,19.97
2018-09-19T21:17:42.027Z,19.97
2018-09-19T21:20:10.377Z,19.91
2018-09-19T21:22:38.754Z,19.89
2018-09-19T21:25:06.465Z,19.86
2018-09-19T21:27:34.814Z,19.85
2018-09-19T21:30:03.735Z,19.84
2018-09-19T21:32:31.491Z,19.81
2018-09-19T21:35:00.402Z,19.80
2018-09-19T21:37:28.731Z,19.74
2018-09-19T21:39:58.199Z,19.72
2018-09-19T21:42:25.441Z,19.72
2018-09-19T21:44:53.188Z,19.55
2018-09-19T21:47:21.522Z,19.25
2018-09-19T21:49:50.670Z,19.00
2018-09-19T21:52:18.782Z,18.77
2018-09-19T21:54:47.124Z,18.72
2018-09-19T21:57:14.896Z,18.81
2018-09-19T21:59:43.806Z,18.94
2018-09-19T22:02:12.138Z,19.07
2018-09-19T22:04:40.471Z,19.15
2018-09-19T22:07:08.217Z,19.21
2018-09-19T22:09:36.562Z,19.25
2018-09-19T22:12:05.471Z,19.28
2018-09-19T22:14:33.226Z,19.29
2018-09-19T22:17:02.139Z,19.27
2018-09-19T22:19:29.902Z,19.25
2018-09-19T22:21:58.816Z,19.22
2018-09-19T22:24:26.571Z,19.17
2018-09-19T22:26:55.487Z,19.15
2018-09-19T22:29:23.816Z,19.15
2018-09-19T22:31:51.580Z,19.15
2018-09-19T22:34:20.505Z,19.18
2018-09-19T22:36:48.845Z,19.14
2018-09-19T22:39:17.166Z,19.13
2018-09-19T22:41:45.510Z,19.11
2018-09-19T22:44:13.266Z,19.08
2018-09-19T22:46:42.174Z,19.08
2018-09-19T22:49:09.921Z,19.06
2018-09-19T22:51:38.845Z,19.05
2018-09-19T22:54:06.584Z,19.02
2018-09-19T22:56:35.507Z,19.02
2018-09-19T22:59:03.261Z,19.00
2018-09-19T23:01:32.168Z,18.99
2018-09-19T23:04:01.479Z,18.98
2018-09-19T23:06:28.262Z,18.98
2018-09-19T23:08:56.602Z,18.97
2018-09-19T23:11:24.943Z,18.95
2018-09-19T23:13:53.285Z,18.95
2018-09-19T23:16:21.617Z,18.94
2018-09-19T23:18:49.954Z,18.91
2018-09-19T23:21:18.285Z,18.91
2018-09-19T23:23:47.186Z,18.87
2018-09-19T23:26:15.528Z,18.86
2018-09-19T23:28:43.876Z,18.84
2018-09-19T23:31:11.625Z,18.84
2018-09-19T23:33:39.956Z,18.83
2018-09-19T23:36:09.469Z,18.84
2018-09-19T23:38:37.200Z,18.85
2018-09-19T23:41:04.949Z,18.86
2018-09-19T23:43:33.864Z,18.85
2018-09-19T23:46:02.197Z,18.79
2018-09-19T23:48:30.562Z,18.78
2018-09-19T23:50:58.856Z,18.69
2018-09-19T23:53:27.412Z,18.60
2018-09-19T23:55:55.509Z,18.56
2018-09-19T23:58:23.262Z,18.55
